createdAt,value
2018-09-29T00:02:27.071Z,4.50
2018-09-29T00:04:55.928Z,4.40
2018-09-29T00:07:24.818Z,4.30
2018-09-29T00:09:53.944Z,4.30
2018-09-29T00:12:22.465Z,4.30
2018-09-29T00:14:50.950Z,4.20
2018-09-29T00:17:20.088Z,4.10
2018-09-29T00:19:49.474Z,4.00
2018-09-29T00:22:20.265Z,3.90
2018-09-29T00:24:48.856Z,3.90
2018-09-29T00:27:17.369Z,3.90
2018-09-29T00:29:45.859Z,3.80
2018-09-29T00:32:14.588Z,3.70
2018-09-29T00:34:43.334Z,3.70
2018-09-29T00:37:12.596Z,3.70
2018-09-29T00:39:43.636Z,3.60
2018-09-29T00:42:13.196Z,3.60
2018-09-29T00:44:41.677Z,3.60
2018-09-29T00:47:11.033Z,3.50
2018-09-29T00:49:41.172Z,3.50
2018-09-29T00:52:10.523Z,3.50
2018-09-29T00:54:39.759Z,3.50
2018-09-29T00:57:09.614Z,3.50
2018-09-29T00:59:38.608Z,3.40
2018-09-29T01:02:07.597Z,3.40
2018-09-29T01:04:35.984Z,3.30
2018-09-29T01:07:05.230Z,3.30
2018-09-29T01:09:34.607Z,3.30
2018-09-29T01:12:05.174Z,3.30
2018-09-29T01:14:36.337Z,3.30
2018-09-29T01:17:05.529Z,3.30
2018-09-29T01:19:35.745Z,3.30
2018-09-29T01:22:07.682Z,3.30
2018-09-29T01:24:37.339Z,3.20
2018-09-29T01:27:12.754Z,3.20
2018-09-29T01:29:42.392Z,3.10
2018-09-29T01:32:11.120Z,3.10
2018-09-29T01:34:40.280Z,3.20
2018-09-29T01:37:09.941Z,3.10
2018-09-29T01:39:39.893Z,3.00
2018-09-29T01:42:10.266Z,2.90
2018-09-29T01:44:41.728Z,2.90
2018-09-29T01:47:11.673Z,2.90
2018-09-29T01:49:41.343Z,2.90
2018-09-29T01:52:10.884Z,2.90
2018-09-29T01:54:41.372Z,2.90
2018-09-29T01:57:11.815Z,2.90
2018-09-29T01:59:42.274Z,3.00
2018-09-29T02:02:12.315Z,3.00
2018-09-29T02:04:42.700Z,2.90
2018-09-29T02:07:11.668Z,2.90
2018-09-29T02:09:44.708Z,2.80
2018-09-29T02:12:15.879Z,2.80
2018-09-29T02:14:45.612Z,3.00
2018-09-29T02:17:17.768Z,3.10
2018-09-29T02:19:48.002Z,3.10
2018-09-29T02:22:19.849Z,3.10
2018-09-29T02:24:49.574Z,3.00
2018-09-29T02:27:19.981Z,2.90
2018-09-29T02:29:51.026Z,2.80
2018-09-29T02:32:22.646Z,2.70
2018-09-29T02:34:55.180Z,2.60
2018-09-29T02:37:24.309Z,2.60
2018-09-29T02:39:55.421Z,2.60
2018-09-29T02:42:26.905Z,2.70
2018-09-29T02:44:57.531Z,2.70
2018-09-29T02:47:28.334Z,2.60
2018-09-29T02:50:01.375Z,2.60
2018-09-29T02:52:33.855Z,2.50
2018-09-29T02:55:06.540Z,2.60
2018-09-29T02:57:37.200Z,2.60
2018-09-29T03:00:09.489Z,2.60
2018-09-29T03:02:40.318Z,2.70
2018-09-29T03:05:10.140Z,2.70
2018-09-29T03:07:42.936Z,2.70
2018-09-29T03:10:14.299Z,2.60
2018-09-29T03:12:44.222Z,2.50
2018-09-29T03:15:13.544Z,2.60
2018-09-29T03:17:42.403Z,2.50
2018-09-29T03:20:12.299Z,2.50
2018-09-29T03:22:41.386Z,2.50
2018-09-29T03:25:11.039Z,2.40
2018-09-29T03:27:40.177Z,2.30
2018-09-29T03:30:09.625Z,2.20
2018-09-29T03:32:40.429Z,2.30
2018-09-29T03:35:11.246Z,2.40
2018-09-29T03:37:40.958Z,2.40
2018-09-29T03:40:11.194Z,2.40
2018-09-29T03:42:43.130Z,2.50
2018-09-29T03:45:14.086Z,2.40
2018-09-29T03:47:43.555Z,2.30
2018-09-29T03:50:16.198Z,2.30
2018-09-29T03:52:45.618Z,2.30
2018-09-29T03:55:17.138Z,2.10
2018-09-29T03:57:47.668Z,2.20
2018-09-29T04:00:17.649Z,2.10
2018-09-29T04:02:46.639Z,2.20
2018-09-29T04:05:16.107Z,2.20
2018-09-29T04:07:45.056Z,2.20
2018-09-29T04:10:15.414Z,2.20
2018-09-29T04:12:47.397Z,2.30
2018-09-29T04:15:17.571Z,2.50
2018-09-29T04:17:47.626Z,2.50
2018-09-29T04:20:16.332Z,2.50
2018-09-29T04:22:45.831Z,2.60
2018-09-29T04:25:14.562Z,2.70
2018-09-29T04:27:43.912Z,2.80
2018-09-29T04:30:14.483Z,2.80
2018-09-29T04:32:44.998Z,2.80
2018-09-29T04:35:13.583Z,2.90
2018-09-29T04:37:42.495Z,2.90
2018-09-29T04:40:13.305Z,2.90
2018-09-29T04:42:44.357Z,2.90
2018-09-29T04:45:15.147Z,3.10
2018-09-29T04:47:46.071Z,3.10
2018-09-29T04:50:17.600Z,3.00
2018-09-29T04:52:47.946Z,2.90
2018-09-29T04:55:16.366Z,2.70
2018-09-29T04:57:45.896Z,2.50
2018-09-29T05:00:15.623Z,2.30
2018-09-29T05:02:45.395Z,2.20
2018-09-29T05:05:15.858Z,2.10
2018-09-29T05:07:47.524Z,2.10
2018-09-29T05:10:17.990Z,2.20
2018-09-29T05:12:48.463Z,2.20
2018-09-29T05:15:17.432Z,2.20
2018-09-29T05:17:48.486Z,2.20
2018-09-29T05:20:17.403Z,2.20
2018-09-29T05:22:45.940Z,2.20
2018-09-29T05:25:15.380Z,2.10
2018-09-29T05:27:45.254Z,2.20
2018-09-29T05:30:15.813Z,2.20
2018-09-29T05:32:44.462Z,2.20
2018-09-29T05:35:13.734Z,2.20
2018-09-29T05:37:42.508Z,2.30
2018-09-29T05:40:11.357Z,2.30
2018-09-29T05:42:40.590Z,2.30
2018-09-29T05:45:09.389Z,2.40
2018-09-29T05:47:38.376Z,2.50
2018-09-29T05:50:07.262Z,2.70
2018-09-29T05:52:39.181Z,3.20
2018-09-29T05:55:07.760Z,3.40
2018-09-29T05:57:37.993Z,3.80
2018-09-29T06:00:09.333Z,4.10
2018-09-29T06:02:38.045Z,4.30
2018-09-29T06:05:07.390Z,4.70
2018-09-29T06:07:36.035Z,4.90
2018-09-29T06:10:05.497Z,5.20
2018-09-29T06:12:34.397Z,5.50
2018-09-29T06:15:03.338Z,5.70
2018-09-29T06:17:32.805Z,6.20
2018-09-29T06:20:02.533Z,6.20
2018-09-29T06:22:32.954Z,6.30
2018-09-29T06:25:02.332Z,6.70
2018-09-29T06:27:31.087Z,7.10
2018-09-29T06:30:00.742Z,7.50
2018-09-29T06:32:31.548Z,7.90
2018-09-29T06:35:03.133Z,8.40
2018-09-29T06:37:36.030Z,8.90
2018-09-29T06:40:04.722Z,9.50
2018-09-29T06:42:35.299Z,9.90
2018-09-29T06:45:06.309Z,9.90
2018-09-29T06:47:35.111Z,9.80
2018-09-29T06:50:06.948Z,10.00
2018-09-29T06:52:37.209Z,10.70
2018-09-29T06:55:06.126Z,11.30
2018-09-29T06:57:35.079Z,11.70
2018-09-29T07:00:04.874Z,11.90
2018-09-29T07:02:34.986Z,12.10
2018-09-29T07:05:04.334Z,12.30
2018-09-29T07:07:33.823Z,12.60
2018-09-29T07:10:02.843Z,12.70
2018-09-29T07:12:37.818Z,13.00
2018-09-29T07:15:09.753Z,13.00
2018-09-29T07:17:45.241Z,12.70
2018-09-29T07:20:15.931Z,12.50
2018-09-29T07:22:48.437Z,12.30
2018-09-29T07:25:18.439Z,12.80
2018-09-29T07:27:48.788Z,12.80
2018-09-29T07:30:21.886Z,13.00
2018-09-29T07:32:52.621Z,13.60
2018-09-29T07:35:24.431Z,13.60
2018-09-29T07:37:56.724Z,13.50
2018-09-29T07:40:29.830Z,13.70
2018-09-29T07:43:00.093Z,13.60
2018-09-29T07:45:30.692Z,13.90
2018-09-29T07:48:02.801Z,14.00
2018-09-29T07:50:32.730Z,13.70
2018-09-29T07:53:04.109Z,13.70
2018-09-29T07:55:37.354Z,14.20
2018-09-29T07:58:08.363Z,14.40
2018-09-29T08:00:40.918Z,14.40
2018-09-29T08:03:10.143Z,14.50
2018-09-29T08:05:38.908Z,15.30
2018-09-29T08:08:08.867Z,15.40
2018-09-29T08:10:39.714Z,15.10
2018-09-29T08:13:08.901Z,15.00
2018-09-29T08:15:41.990Z,15.70
2018-09-29T08:18:12.166Z,16.40
2018-09-29T08:20:42.531Z,17.10
2018-09-29T08:23:13.877Z,17.30
2018-09-29T08:25:43.877Z,17.30
2018-09-29T08:28:13.922Z,16.80
2018-09-29T08:30:45.121Z,16.80
2018-09-29T08:33:14.577Z,17.10
2018-09-29T08:35:45.448Z,17.50
2018-09-29T08:38:17.797Z,17.70
2018-09-29T08:40:51.419Z,17.80
2018-09-29T08:43:21.457Z,17.50
2018-09-29T08:45:51.888Z,17.20
2018-09-29T08:48:22.697Z,17.40
2018-09-29T08:50:51.866Z,16.90
2018-09-29T08:53:21.942Z,16.80
2018-09-29T08:55:54.027Z,17.40
2018-09-29T08:58:23.539Z,18.40
2018-09-29T09:00:52.882Z,18.60
2018-09-29T09:03:24.030Z,18.80
2018-09-29T09:05:53.868Z,19.50
2018-09-29T09:08:23.711Z,19.20
2018-09-29T09:10:56.269Z,18.80
2018-09-29T09:13:27.800Z,19.00
2018-09-29T09:15:59.668Z,19.00
2018-09-29T09:18:32.844Z,19.70
2018-09-29T09:21:02.252Z,20.60
2018-09-29T09:23:32.072Z,20.80
2018-09-29T09:26:05.997Z,20.50
2018-09-29T09:28:35.150Z,19.60
2018-09-29T09:31:03.950Z,20.10
2018-09-29T09:33:32.573Z,19.10
2018-09-29T09:36:01.956Z,17.00
2018-09-29T09:38:32.810Z,17.30
2018-09-29T09:41:01.650Z,16.90
2018-09-29T09:43:31.477Z,17.60
2018-09-29T09:46:02.171Z,17.60
2018-09-29T09:48:31.699Z,18.30
2018-09-29T09:51:00.753Z,18.80
2018-09-29T09:53:30.497Z,19.40
2018-09-29T09:55:59.436Z,18.70
2018-09-29T09:58:28.219Z,18.40
2018-09-29T10:01:01.468Z,18.60
2018-09-29T10:03:31.953Z,18.10
2018-09-29T10:06:00.750Z,17.20
2018-09-29T10:08:30.074Z,16.70
2018-09-29T10:10:58.799Z,16.30
2018-09-29T10:13:28.042Z,16.40
2018-09-29T10:15:56.715Z,15.90
2018-09-29T10:18:25.506Z,16.10
2018-09-29T10:20:55.280Z,15.80
2018-09-29T10:23:25.300Z,15.60
2018-09-29T10:25:55.153Z,15.50
2018-09-29T10:28:24.204Z,15.90
2018-09-29T10:30:55.090Z,15.90
2018-09-29T10:33:24.544Z,15.40
2018-09-29T10:35:53.165Z,14.90
2018-09-29T10:38:22.601Z,15.10
2018-09-29T10:40:51.080Z,15.10
2018-09-29T10:43:20.150Z,15.20
2018-09-29T10:45:49.224Z,15.70
2018-09-29T10:48:19.787Z,15.20
2018-09-29T10:50:48.377Z,15.20
2018-09-29T10:53:17.107Z,15.50
2018-09-29T10:55:45.904Z,15.60
2018-09-29T10:58:14.864Z,16.20
2018-09-29T11:00:44.537Z,16.50
2018-09-29T11:03:14.739Z,16.40
2018-09-29T11:05:43.570Z,16.30
2018-09-29T11:08:12.368Z,15.70
2018-09-29T11:10:42.406Z,15.70
2018-09-29T11:13:11.354Z,14.80
2018-09-29T11:15:41.153Z,14.80
2018-09-29T11:18:10.963Z,15.00
2018-09-29T11:20:43.222Z,15.20
2018-09-29T11:23:14.200Z,16.20
2018-09-29T11:25:44.983Z,16.90
2018-09-29T11:28:14.598Z,16.60
2018-09-29T11:30:44.211Z,15.60
2018-09-29T11:33:13.804Z,15.90
2018-09-29T11:35:43.489Z,15.90
2018-09-29T11:38:14.226Z,16.70
2018-09-29T11:40:43.260Z,16.10
2018-09-29T11:43:12.426Z,16.10
2018-09-29T11:45:42.079Z,16.00
2018-09-29T11:48:12.921Z,16.10
2018-09-29T11:50:44.107Z,16.10
2018-09-29T11:53:18.893Z,15.90
2018-09-29T11:55:49.511Z,15.70
2018-09-29T11:58:19.421Z,15.80
2018-09-29T12:00:51.520Z,15.90
2018-09-29T12:03:21.924Z,16.00
2018-09-29T12:05:53.341Z,16.50
2018-09-29T12:08:22.188Z,16.70
2018-09-29T12:10:53.667Z,17.30
2018-09-29T12:13:23.275Z,17.20
2018-09-29T12:15:52.973Z,17.70
2018-09-29T12:18:22.551Z,17.20
2018-09-29T12:20:52.190Z,15.70
2018-09-29T12:23:23.061Z,14.60
2018-09-29T12:25:54.861Z,14.40
2018-09-29T12:28:23.507Z,14.60
2018-09-29T12:30:53.295Z,14.50
2018-09-29T12:33:22.953Z,14.30
2018-09-29T12:35:54.878Z,14.10
2018-09-29T12:38:24.112Z,14.10
2018-09-29T12:40:53.712Z,14.20
2018-09-29T12:43:23.346Z,14.20
2018-09-29T12:45:52.513Z,14.20
2018-09-29T12:48:22.323Z,14.20
2018-09-29T12:50:50.976Z,14.20
2018-09-29T12:53:19.899Z,14.40
2018-09-29T12:55:48.937Z,14.40
2018-09-29T12:58:19.307Z,14.50
2018-09-29T13:00:49.337Z,14.60
2018-09-29T13:03:20.878Z,14.70
2018-09-29T13:05:51.005Z,16.00
2018-09-29T13:08:21.366Z,17.10
2018-09-29T13:10:51.257Z,17.10
2018-09-29T13:13:19.660Z,17.70
2018-09-29T13:15:50.612Z,18.20
2018-09-29T13:18:20.260Z,18.00
2018-09-29T13:20:49.997Z,17.70
2018-09-29T13:23:18.478Z,17.40
2018-09-29T13:25:48.619Z,17.30
2018-09-29T13:28:18.298Z,16.60
2018-09-29T13:30:47.170Z,15.90
2018-09-29T13:33:16.312Z,15.50
2018-09-29T13:35:45.926Z,15.60
2018-09-29T13:38:15.013Z,15.50
2018-09-29T13:40:43.761Z,15.50
2018-09-29T13:43:12.357Z,15.60
2018-09-29T13:45:40.992Z,15.70
2018-09-29T13:48:09.607Z,15.20
2018-09-29T13:50:38.328Z,15.10
2018-09-29T13:53:07.926Z,15.10
2018-09-29T13:55:36.520Z,15.10
2018-09-29T13:58:05.622Z,15.20
2018-09-29T14:00:34.647Z,15.10
2018-09-29T14:03:03.020Z,15.50
2018-09-29T14:05:31.768Z,15.80
2018-09-29T14:08:00.175Z,16.50
2018-09-29T14:10:28.713Z,16.70
2018-09-29T14:12:57.539Z,17.00
2018-09-29T14:15:26.013Z,17.70
2018-09-29T14:17:54.748Z,17.50
2018-09-29T14:20:23.286Z,17.30
2018-09-29T14:22:51.707Z,17.70
2018-09-29T14:25:20.167Z,17.30
2018-09-29T14:27:48.777Z,15.90
2018-09-29T14:30:18.262Z,15.20
2018-09-29T14:32:46.815Z,15.10
2018-09-29T14:35:15.125Z,15.00
2018-09-29T14:37:43.548Z,14.90
2018-09-29T14:40:11.974Z,14.90
2018-09-29T14:42:40.762Z,15.00
2018-09-29T14:45:09.279Z,15.00
2018-09-29T14:47:37.731Z,14.90
2018-09-29T14:50:06.107Z,14.80
2018-09-29T14:52:34.989Z,14.70
2018-09-29T14:55:03.894Z,14.60
2018-09-29T14:57:32.802Z,14.60
2018-09-29T15:00:01.370Z,14.70
2018-09-29T15:02:30.083Z,14.70
2018-09-29T15:04:58.846Z,14.70
2018-09-29T15:07:27.240Z,14.60
2018-09-29T15:09:55.696Z,14.60
2018-09-29T15:12:24.477Z,14.50
2018-09-29T15:14:52.907Z,14.60
2018-09-29T15:17:21.436Z,14.50
2018-09-29T15:19:49.995Z,14.50
2018-09-29T15:22:18.302Z,14.50
2018-09-29T15:24:46.728Z,14.50
2018-09-29T15:27:15.115Z,14.40
2018-09-29T15:29:43.486Z,14.40
2018-09-29T15:32:11.788Z,14.40
2018-09-29T15:34:40.291Z,14.40
2018-09-29T15:37:08.822Z,14.40
2018-09-29T15:39:37.159Z,14.40
2018-09-29T15:42:05.551Z,14.30
2018-09-29T15:44:33.920Z,14.30
2018-09-29T15:47:02.400Z,14.20
2018-09-29T15:49:30.871Z,14.20
2018-09-29T15:51:59.479Z,14.30
2018-09-29T15:54:27.975Z,14.30
2018-09-29T15:56:56.698Z,14.30
2018-09-29T15:59:25.156Z,14.20
2018-09-29T16:01:53.562Z,14.10
2018-09-29T16:04:22.249Z,14.10
2018-09-29T16:06:50.635Z,14.10
2018-09-29T16:09:19.087Z,14.10
2018-09-29T16:11:47.499Z,14.10
2018-09-29T16:14:16.214Z,14.00
2018-09-29T16:16:44.863Z,14.00
2018-09-29T16:19:13.316Z,13.90
2018-09-29T16:21:41.914Z,13.90
2018-09-29T16:24:10.268Z,13.90
2018-09-29T16:26:38.963Z,13.80
2018-09-29T16:29:07.304Z,13.80
2018-09-29T16:31:35.996Z,13.80
2018-09-29T16:34:04.367Z,13.80
2018-09-29T16:36:32.879Z,13.70
2018-09-29T16:39:01.441Z,13.50
2018-09-29T16:41:30.647Z,13.50
2018-09-29T16:43:59.521Z,13.60
2018-09-29T16:46:29.158Z,13.70
2018-09-29T16:48:57.700Z,13.70
2018-09-29T16:51:26.457Z,13.70
2018-09-29T16:53:57.042Z,13.50
2018-09-29T16:56:25.432Z,13.50
2018-09-29T16:58:56.240Z,13.40
2018-09-29T17:01:25.496Z,13.40
2018-09-29T17:03:54.694Z,13.30
2018-09-29T17:06:23.770Z,13.20
2018-09-29T17:08:54.073Z,13.10
2018-09-29T17:11:22.723Z,13.00
2018-09-29T17:13:51.473Z,12.80
2018-09-29T17:16:23.312Z,12.60
2018-09-29T17:18:53.615Z,12.50
2018-09-29T17:21:22.495Z,12.40
2018-09-29T17:23:54.019Z,12.30
2018-09-29T17:26:26.962Z,12.40
2018-09-29T17:28:58.417Z,12.30
2018-09-29T17:43:56.118Z,12.30
2018-09-29T17:46:28.841Z,12.20
2018-09-29T17:49:00.743Z,11.90
2018-09-29T17:51:33.415Z,11.70
2018-09-29T17:54:05.068Z,11.60
2018-09-29T17:56:34.997Z,11.60
2018-09-29T17:59:05.128Z,11.70
2018-09-29T18:01:34.889Z,11.80
2018-09-29T18:04:04.875Z,11.80
2018-09-29T18:06:33.464Z,11.70
2018-09-29T18:09:04.224Z,11.50
2018-09-29T18:11:34.475Z,11.40
2018-09-29T18:14:06.173Z,11.20
2018-09-29T18:16:35.822Z,11.10
2018-09-29T18:19:05.543Z,11.00
2018-09-29T18:21:44.232Z,10.90
2018-09-29T18:24:13.440Z,10.80
2018-09-29T18:26:43.617Z,10.60
2018-09-29T18:29:12.811Z,10.50
2018-09-29T18:31:41.859Z,10.30
2018-09-29T18:34:11.085Z,10.20
2018-09-29T18:36:41.819Z,10.00
2018-09-29T18:39:13.186Z,10.00
2018-09-29T18:41:46.526Z,10.00
2018-09-29T18:44:18.062Z,10.00
2018-09-29T18:46:46.565Z,10.10
2018-09-29T18:49:16.208Z,10.10
2018-09-29T18:51:45.794Z,10.10
2018-09-29T18:54:14.237Z,10.10
2018-09-29T18:56:44.206Z,10.00
2018-09-29T18:59:13.448Z,10.00
2018-09-29T19:01:42.766Z,9.80
2018-09-29T19:04:11.168Z,9.80
2018-09-29T19:06:40.601Z,9.80
2018-09-29T19:09:11.583Z,9.70
2018-09-29T19:11:40.797Z,9.60
2018-09-29T19:14:10.557Z,9.50
2018-09-29T19:16:40.832Z,9.40
2018-09-29T19:19:09.785Z,9.40
2018-09-29T19:21:38.356Z,9.30
2018-09-29T19:24:07.838Z,9.40
2018-09-29T19:26:38.535Z,9.30
2018-09-29T19:29:07.211Z,9.30
2018-09-29T19:31:38.057Z,9.20
2018-09-29T19:34:07.176Z,9.20
2018-09-29T19:36:35.917Z,9.20
2018-09-29T19:39:06.133Z,9.20
2018-09-29T19:41:35.819Z,9.10
2018-09-29T19:44:05.771Z,9.20
2018-09-29T19:46:34.654Z,9.20
2018-09-29T19:49:03.056Z,9.00
2018-09-29T19:51:31.624Z,8.90
2018-09-29T19:54:00.983Z,8.80
2018-09-29T19:56:29.509Z,8.90
2018-09-29T19:58:59.561Z,8.80
2018-09-29T20:01:28.168Z,8.80
2018-09-29T20:03:56.792Z,8.70
2018-09-29T20:06:25.609Z,8.60
2018-09-29T20:08:54.184Z,8.40
2018-09-29T20:11:22.653Z,8.30
2018-09-29T20:13:51.099Z,8.10
2018-09-29T20:16:20.315Z,7.90
2018-09-29T20:18:50.154Z,7.80
2018-09-29T20:21:18.693Z,7.70
2018-09-29T20:23:47.277Z,7.50
2018-09-29T20:26:16.087Z,7.30
2018-09-29T20:28:44.702Z,7.20
2018-09-29T20:31:13.523Z,7.00
2018-09-29T20:33:42.562Z,6.80
2018-09-29T20:36:11.194Z,6.70
2018-09-29T20:38:40.033Z,6.50
2018-09-29T20:41:10.136Z,6.40
2018-09-29T20:43:38.766Z,6.30
2018-09-29T20:46:08.345Z,6.30
2018-09-29T20:48:36.960Z,6.20
2018-09-29T20:51:05.438Z,6.10
2018-09-29T20:53:34.082Z,6.10
2018-09-29T20:56:02.650Z,6.10
2018-09-29T20:58:31.260Z,6.10
2018-09-29T21:00:59.970Z,6.10
2018-09-29T21:03:29.714Z,6.20
2018-09-29T21:05:58.352Z,6.20
2018-09-29T21:08:26.792Z,6.10
2018-09-29T21:10:55.600Z,6.00
2018-09-29T21:13:24.518Z,5.90
2018-09-29T21:15:53.310Z,5.80
2018-09-29T21:18:21.969Z,5.70
2018-09-29T21:20:50.576Z,5.60
2018-09-29T21:23:19.251Z,5.60
2018-09-29T21:25:48.099Z,5.60
2018-09-29T21:28:17.320Z,5.60
2018-09-29T21:30:46.439Z,5.70
2018-09-29T21:33:14.827Z,5.70
2018-09-29T21:35:43.353Z,5.70
2018-09-29T21:38:12.224Z,5.70
2018-09-29T21:40:41.138Z,5.60
2018-09-29T21:43:09.913Z,5.60
2018-09-29T21:45:38.762Z,5.50
2018-09-29T21:48:07.142Z,5.40
2018-09-29T21:50:35.859Z,5.30
2018-09-29T21:53:05.049Z,5.20
2018-09-29T21:55:33.495Z,5.10
2018-09-29T21:58:01.989Z,5.00
2018-09-29T22:00:34.583Z,5.00
2018-09-29T22:03:04.135Z,5.10
2018-09-29T22:05:33.048Z,5.10
2018-09-29T22:08:01.625Z,5.10
2018-09-29T22:10:30.102Z,5.00
2018-09-29T22:12:58.679Z,5.00
2018-09-29T22:15:27.230Z,5.00
2018-09-29T22:17:56.216Z,5.00
2018-09-29T22:20:24.698Z,4.90
2018-09-29T22:22:53.221Z,4.80
2018-09-29T22:25:21.914Z,4.80
2018-09-29T22:27:50.461Z,4.80
2018-09-29T22:30:18.939Z,4.80
2018-09-29T22:32:47.467Z,4.80
2018-09-29T22:35:15.961Z,4.70
2018-09-29T22:37:44.720Z,4.70
2018-09-29T22:40:13.415Z,4.60
2018-09-29T22:42:41.911Z,4.50
2018-09-29T22:45:10.848Z,4.50
2018-09-29T22:47:39.514Z,4.50
2018-09-29T22:50:07.972Z,4.40
2018-09-29T22:52:36.520Z,4.40
2018-09-29T22:55:05.048Z,4.40
2018-09-29T22:57:33.630Z,4.40
2018-09-29T23:00:03.247Z,4.40
2018-09-29T23:02:32.625Z,4.40
2018-09-29T23:05:01.400Z,4.40
2018-09-29T23:07:29.878Z,4.30
2018-09-29T23:09:58.450Z,4.20
2018-09-29T23:12:30.290Z,4.20
2018-09-29T23:14:59.333Z,4.20
2018-09-29T23:17:27.889Z,4.20
2018-09-29T23:19:56.604Z,4.20
2018-09-29T23:22:25.139Z,4.30
2018-09-29T23:24:53.927Z,4.40
2018-09-29T23:27:22.367Z,4.40
2018-09-29T23:29:50.811Z,4.50
2018-09-29T23:32:19.382Z,4.60
2018-09-29T23:34:48.738Z,4.50
2018-09-29T23:37:17.585Z,4.60
2018-09-29T23:39:46.087Z,4.50
2018-09-29T23:42:14.695Z,4.50
2018-09-29T23:44:43.195Z,4.60
2018-09-29T23:47:12.130Z,4.60
2018-09-29T23:49:40.991Z,4.60
2018-09-29T23:52:10.727Z,4.50
2018-09-29T23:54:40.851Z,4.50
2018-09-29T23:57:09.974Z,4.50
2018-09-29T23:59:38.861Z,4.40
